Time;durP1;ratioP1;P1;durP2;ratioP2;P2;SDS_P1;SDS_P2;PMS_P1;PMS_P2;Temp;Humidity;BMP_temperature;BMP_pressure;BME280_temperature;BME280_humidity;BME280_pressure;Samples;Min_cycle;Max_cycle;Signal;HPM_P1;HPM_P2
2022/11/03 00:01:09;;;;;;;6.30;1.80;;;;;;;3.77;100.00;101485.44;5058499;28;20199;-75
2022/11/03 00:03:35;;;;;;;3.67;2.17;;;;;;;3.74;100.00;101485.38;5044610;28;20274;-76
2022/11/03 00:06:04;;;;;;;5.07;2.33;;;;;;;3.73;100.00;101486.25;5048867;28;20251;-75
2022/11/03 00:08:31;;;;;;;3.13;1.90;;;;;;;3.71;100.00;101480.19;5052401;28;20187;-75
2022/11/03 00:11:02;;;;;;;2.70;2.23;;;;;;;3.66;100.00;101480.94;5053108;28;20583;-75
2022/11/03 00:13:28;;;;;;;3.53;2.20;;;;;;;3.60;100.00;101484.28;5053358;28;20269;-75
2022/11/03 00:15:55;;;;;;;5.57;2.13;;;;;;;3.59;100.00;101477.41;5051893;28;20703;-74
2022/11/03 00:18:22;;;;;;;5.53;2.50;;;;;;;3.55;100.00;101479.09;5053795;28;20191;-75
2022/11/03 00:20:55;;;;;;;5.53;2.57;;;;;;;3.53;100.00;101473.00;5052528;28;20211;-75
2022/11/03 00:23:22;;;;;;;3.23;2.07;;;;;;;3.55;100.00;101470.47;5053577;28;20211;-75
2022/11/03 00:25:48;;;;;;;7.83;2.40;;;;;;;3.64;100.00;101467.16;5052697;28;20714;-75
2022/11/03 00:28:14;;;;;;;8.50;2.70;;;;;;;3.67;100.00;101470.66;5051867;28;20201;-75
2022/11/03 00:30:41;;;;;;;7.13;2.90;;;;;;;3.58;100.00;101471.38;5053350;28;20202;-75
2022/11/03 00:33:07;;;;;;;4.27;2.20;;;;;;;3.64;100.00;101472.31;5053630;28;20194;-75
2022/11/03 00:35:35;;;;;;;5.17;2.13;;;;;;;3.70;100.00;101470.72;5052590;28;20710;-76
2022/11/03 00:38:01;;;;;;;5.57;2.43;;;;;;;3.55;100.00;101473.03;5053247;28;20199;-75
2022/11/03 00:40:28;;;;;;;6.60;2.47;;;;;;;3.44;100.00;101474.56;5053394;28;20199;-75
2022/11/03 00:42:54;;;;;;;4.17;2.33;;;;;;;3.49;100.00;101476.38;5052634;28;20237;-75
2022/11/03 00:45:20;;;;;;;5.10;2.50;;;;;;;3.69;100.00;101471.53;5052422;28;20715;-75
2022/11/03 00:50:27;;;;;;;10.03;2.53;;;;;;;3.71;100.00;101466.41;5036444;28;20268;-75
2022/11/03 00:52:55;;;;;;;3.70;2.07;;;;;;;3.66;100.00;101470.63;5052103;28;20226;-75
2022/11/03 00:55:21;;;;;;;13.43;2.70;;;;;;;3.67;100.00;101467.22;5053057;28;20233;-75
2022/11/03 00:57:48;;;;;;;3.97;2.37;;;;;;;3.67;100.00;101465.50;5053312;28;20203;-75
2022/11/03 01:00:14;;;;;;;5.87;2.47;;;;;;;3.60;100.00;101467.09;5050134;28;20652;-75
2022/11/03 01:02:41;;;;;;;3.60;2.37;;;;;;;3.59;100.00;101461.94;5071664;28;20226;-75
2022/11/03 01:07:54;;;;;;;10.83;2.43;;;;;;;3.65;100.00;101456.88;5055835;28;20207;-76
2022/11/03 01:10:21;;;;;;;8.40;2.40;;;;;;;3.60;100.00;101454.19;5057778;28;20199;-75
2022/11/03 01:12:47;;;;;;;5.97;2.17;;;;;;;3.65;100.00;101448.28;5064635;28;20287;-75
2022/11/03 01:15:13;;;;;;;4.13;2.00;;;;;;;3.64;100.00;101444.84;5037567;28;20588;-75
2022/11/03 01:17:40;;;;;;;4.37;2.47;;;;;;;3.64;100.00;101447.41;5052077;28;20270;-75
2022/11/03 01:20:08;;;;;;;5.77;2.63;;;;;;;3.63;100.00;101440.50;5056022;28;20764;-75
2022/11/03 01:22:34;;;;;;;6.17;2.23;;;;;;;3.59;100.00;101437.00;5055741;28;20222;-75
2022/11/03 01:25:02;;;;;;;5.17;2.10;;;;;;;3.63;100.00;101437.94;5053368;28;20191;-75
2022/11/03 01:27:28;;;;;;;5.93;2.40;;;;;;;3.58;100.00;101434.41;5056935;28;20201;-75
2022/11/03 01:29:55;;;;;;;7.90;2.60;;;;;;;3.60;100.00;101432.72;5055975;28;20199;-75
2022/11/03 01:32:21;;;;;;;3.13;2.20;;;;;;;3.53;100.00;101430.88;5055542;28;20195;-75
2022/11/03 01:34:47;;;;;;;4.93;2.70;;;;;;;3.56;100.00;101426.66;5056037;28;20194;-75
2022/11/03 01:37:14;;;;;;;4.23;2.40;;;;;;;3.50;100.00;101429.16;5055709;28;20223;-75
2022/11/03 01:39:40;;;;;;;5.10;2.67;;;;;;;3.38;100.00;101416.06;5056915;28;20190;-75
2022/11/03 01:42:12;;;;;;;5.07;2.63;;;;;;;3.42;100.00;101415.25;5057265;28;20683;-75
2022/11/03 01:44:43;;;;;;;7.10;2.17;;;;;;;3.25;100.00;101421.84;5056306;28;20227;-75
2022/11/03 01:47:16;;;;;;;4.93;2.63;;;;;;;3.25;100.00;101414.09;5054413;28;20587;-75
2022/11/03 01:49:47;;;;;;;7.67;2.90;;;;;;;3.21;100.00;101410.63;5056951;28;20203;-75
2022/11/03 01:52:18;;;;;;;4.27;2.00;;;;;;;3.17;100.00;101416.56;5054760;28;20195;-75
2022/11/03 01:54:49;;;;;;;6.57;3.10;;;;;;;3.16;100.00;101419.97;5055066;28;20213;-75
2022/11/03 01:57:24;;;;;;;6.20;2.47;;;;;;;3.16;100.00;101418.25;5055145;28;20222;-75
2022/11/03 01:59:52;;;;;;;7.33;2.67;;;;;;;3.23;100.00;101424.38;5056511;28;20214;-75
2022/11/03 02:02:24;;;;;;;6.43;2.20;;;;;;;3.21;100.00;101411.47;5055472;28;20217;-75
2022/11/03 02:04:50;;;;;;;5.07;2.57;;;;;;;3.16;100.00;101407.94;5055970;28;20556;-75
2022/11/03 02:07:24;;;;;;;4.93;2.70;;;;;;;3.21;100.00;101400.31;5056184;28;20199;-76
2022/11/03 02:09:50;;;;;;;3.77;2.40;;;;;;;3.25;100.00;101403.81;5040092;28;20192;-75
2022/11/03 02:12:21;;;;;;;4.93;2.60;;;;;;;3.26;100.00;101405.53;5058804;28;20253;-75
2022/11/03 02:14:53;;;;;;;3.20;2.57;;;;;;;3.21;100.00;101408.03;5055396;28;20652;-75
2022/11/03 02:17:21;;;;;;;4.23;2.60;;;;;;;3.11;100.00;101398.41;5057025;28;20238;-75
2022/11/03 02:19:52;;;;;;;4.80;2.40;;;;;;;2.93;100.00;101399.81;5056460;28;20270;-75
2022/11/03 02:22:37;;;;;;;8.63;2.70;;;;;;;2.87;100.00;101391.13;5056482;28;20200;-75
2022/11/03 02:25:16;;;;;;;6.00;2.90;;;;;;;2.99;100.00;101396.47;5041427;28;20204;-75
2022/11/03 02:27:44;;;;;;;3.50;2.17;;;;;;;3.01;100.00;101390.53;5042478;28;20227;-75
2022/11/03 02:30:11;;;;;;;4.43;2.53;;;;;;;3.02;100.00;101392.25;5050273;28;20671;-75
2022/11/03 02:32:48;;;;;;;4.60;2.10;;;;;;;2.90;100.00;101396.34;5055964;28;20195;-75
2022/11/03 02:35:22;;;;;;;8.83;3.00;;;;;;;2.89;100.00;101390.31;5049133;28;20219;-75
2022/11/03 02:37:54;;;;;;;3.50;2.70;;;;;;;2.97;100.00;101396.47;5040596;28;20203;-75
2022/11/03 02:40:28;;;;;;;3.93;2.47;;;;;;;2.98;100.00;101390.47;5055559;28;20195;-75
2022/11/03 02:42:57;;;;;;;5.17;2.63;;;;;;;3.03;100.00;101390.56;5054800;28;20219;-75
2022/11/03 02:45:26;;;;;;;6.97;2.70;;;;;;;2.97;100.00;101393.03;5055847;28;20787;-75
2022/11/03 02:47:55;;;;;;;4.70;2.50;;;;;;;2.92;100.00;101398.13;5050585;28;20687;-75
2022/11/03 02:50:26;;;;;;;3.37;2.20;;;;;;;2.80;100.00;101388.44;5056034;28;20191;-76
2022/11/03 02:52:53;;;;;;;4.20;2.40;;;;;;;2.77;100.00;101398.69;5054608;28;20702;-75
2022/11/03 02:55:29;;;;;;;4.00;2.10;;;;;;;2.79;100.00;101396.16;5056168;28;20241;-75
2022/11/03 02:58:03;;;;;;;7.30;2.40;;;;;;;2.80;100.00;101392.75;5057529;28;20210;-75
2022/11/03 05:43:23;;;;;;;3.67;2.43;;;;;;;2.73;100.00;101259.56;4883711;29;20699;-75
2022/11/03 06:42:35;;;;;;;7.10;3.60;;;;;;;2.73;100.00;101249.25;5009247;28;20192;-75
2022/11/03 07:37:11;;;;;;;9.67;5.00;;;;;;;3.86;100.00;101213.81;5039253;28;20227;-75
2022/11/03 07:46:46;;;;;;;6.73;3.47;;;;;;;4.12;100.00;101210.66;5041425;28;20221;-75
2022/11/03 07:49:29;;;;;;;6.63;4.27;;;;;;;4.21;100.00;101204.72;5049874;28;20678;-75
2022/11/03 07:52:08;;;;;;;8.93;4.23;;;;;;;4.24;100.00;101200.44;5045176;28;20199;-75
2022/11/03 07:54:51;;;;;;;12.20;4.27;;;;;;;4.29;100.00;101200.47;5055557;28;20215;-75
2022/11/03 08:01:23;;;;;;;11.83;4.37;;;;;;;4.38;100.00;101192.81;5056444;28;20233;-75
2022/11/03 08:07:36;;;;;;;12.77;4.13;;;;;;;4.53;100.00;101192.91;5055202;28;20349;-75
2022/11/03 08:10:51;;;;;;;10.03;4.17;;;;;;;4.59;100.00;101192.13;5055952;28;20229;-75
2022/11/03 08:13:42;;;;;;;8.83;4.13;;;;;;;4.67;100.00;101192.16;5054751;28;20204;-75
2022/11/03 08:16:28;;;;;;;5.67;3.87;;;;;;;4.71;100.00;101179.31;5067371;28;20227;-75
2022/11/03 08:19:03;;;;;;;11.07;4.57;;;;;;;4.74;100.00;101171.53;5045393;28;20227;-75
2022/11/03 08:21:48;;;;;;;9.10;4.83;;;;;;;4.82;100.00;101173.31;5050367;28;20273;-75
2022/11/03 08:24:27;;;;;;;6.23;4.30;;;;;;;4.87;100.00;101167.34;5049093;28;20235;-75
2022/11/03 08:26:59;;;;;;;7.87;4.87;;;;;;;4.97;100.00;101162.22;5054010;28;20250;-75
2022/11/03 08:29:47;;;;;;;8.97;4.30;;;;;;;5.03;100.00;101157.97;5054575;28;20341;-75
2022/11/03 08:32:20;;;;;;;11.00;4.70;;;;;;;5.13;100.00;101159.69;5049087;28;20226;-74
2022/11/03 08:34:57;;;;;;;15.57;5.27;;;;;;;5.23;100.00;101158.03;5054125;28;20294;-75
2022/11/03 08:40:39;;;;;;;15.80;5.20;;;;;;;5.46;100.00;101162.44;5049499;28;20279;-72
2022/11/03 08:43:28;;;;;;;10.53;5.73;;;;;;;5.53;100.00;101156.44;5052904;28;20226;-72
2022/11/03 08:46:05;;;;;;;10.60;5.83;;;;;;;5.62;100.00;101156.44;5043071;28;20226;-72
2022/11/03 08:48:35;;;;;;;12.13;5.30;;;;;;;5.74;100.00;101154.78;5049231;28;20201;-73
2022/11/03 08:51:04;;;;;;;14.23;4.90;;;;;;;5.79;100.00;101145.28;5052881;28;20538;-72
2022/11/03 08:53:35;;;;;;;11.20;5.17;;;;;;;5.86;100.00;101149.63;5050960;28;20623;-73
2022/11/03 08:56:03;;;;;;;13.10;5.80;;;;;;;5.96;100.00;101132.38;5056528;22;20238;-77
2022/11/03 08:58:29;;;;;;;12.93;5.87;;;;;;;6.06;100.00;101127.22;5026817;28;20231;-77
2022/11/03 09:00:57;;;;;;;13.00;5.90;;;;;;;6.15;100.00;101130.69;5020145;28;20207;-77
2022/11/03 09:03:23;;;;;;;15.27;6.20;;;;;;;6.23;100.00;101113.44;5022485;28;20228;-76
2022/11/03 09:05:50;;;;;;;9.20;5.50;;;;;;;6.34;100.00;101113.41;5006418;28;20204;-76
2022/11/03 09:08:17;;;;;;;10.70;6.10;;;;;;;6.44;100.00;101112.56;5039797;22;20266;-74
2022/11/03 09:10:43;;;;;;;15.23;6.87;;;;;;;6.52;100.00;101115.13;5046712;28;20695;-76
2022/11/03 09:13:10;;;;;;;15.17;6.70;;;;;;;6.60;100.00;101110.78;5052275;28;20192;-75
2022/11/03 09:15:36;;;;;;;16.90;6.60;;;;;;;6.71;100.00;101105.59;5042071;28;20263;-74
2022/11/03 09:18:04;;;;;;;18.57;6.63;;;;;;;6.76;100.00;101102.09;5032822;28;20275;-77
2022/11/03 09:20:30;;;;;;;11.53;6.83;;;;;;;6.82;100.00;101098.63;5006563;28;20215;-76
2022/11/03 09:22:57;;;;;;;13.63;6.63;;;;;;;6.86;100.00;101094.28;5031280;28;20199;-75
2022/11/03 09:25:23;;;;;;;15.13;7.43;;;;;;;6.92;100.00;101094.28;5023583;28;20200;-76
2022/11/03 09:27:50;;;;;;;13.63;7.27;;;;;;;7.07;100.00;101088.16;5035342;28;20214;-74
2022/11/03 09:30:20;;;;;;;14.70;6.80;;;;;;;7.16;100.00;101086.41;5018269;28;20209;-74
2022/11/03 09:32:47;;;;;;;15.63;6.97;;;;;;;7.26;100.00;101076.84;5034085;28;20204;-72
2022/11/03 09:35:15;;;;;;;13.37;6.57;;;;;;;7.36;100.00;101078.50;5032586;28;20826;-75
2022/11/03 09:37:42;;;;;;;12.47;6.43;;;;;;;7.46;100.00;101081.03;5027060;28;20232;-75
2022/11/03 09:40:10;;;;;;;16.23;7.53;;;;;;;7.58;100.00;101070.59;5029027;28;20206;-74
2022/11/03 09:42:38;;;;;;;14.20;7.73;;;;;;;7.70;100.00;101073.09;5032771;28;20713;-75
2022/11/03 09:45:08;;;;;;;16.43;8.37;;;;;;;7.77;100.00;101063.53;5014555;28;20240;-73
2022/11/03 09:47:37;;;;;;;15.57;7.30;;;;;;;7.81;100.00;101062.66;5038078;28;20284;-74
2022/11/03 09:50:07;;;;;;;15.83;8.03;;;;;;;7.90;100.00;101069.53;5005585;28;20205;-74
2022/11/03 09:52:36;;;;;;;17.57;7.37;;;;;;;7.94;100.00;101064.28;5030246;28;20198;-74
2022/11/03 09:55:03;;;;;;;15.43;7.23;;;;;;;8.02;100.00;101056.44;5023578;28;20199;-75
2022/11/03 09:57:31;;;;;;;18.90;6.93;;;;;;;8.10;100.00;101053.75;5030744;28;20463;-75
2022/11/03 09:59:57;;;;;;;17.53;7.33;;;;;;;8.18;100.00;101051.97;5024150;28;20203;-76
2022/11/03 10:02:27;;;;;;;16.00;7.63;;;;;;;8.26;100.00;101038.88;5017276;28;20206;-76
2022/11/03 10:04:55;;;;;;;8.63;6.20;;;;;;;8.32;100.00;101038.84;5026729;28;20212;-75
2022/11/03 10:07:23;;;;;;;8.07;5.73;;;;;;;8.42;100.00;101034.41;5009041;28;20297;-74
2022/11/03 10:09:53;;;;;;;9.30;5.97;;;;;;;8.45;100.00;101035.25;5021542;28;20584;-75
2022/11/03 10:12:22;;;;;;;9.93;5.73;;;;;;;8.54;100.00;101026.50;5025893;28;20743;-76
2022/11/03 10:14:49;;;;;;;7.60;5.03;;;;;;;8.64;100.00;101030.72;5016661;28;20798;-73
2022/11/03 10:17:20;;;;;;;11.80;4.50;;;;;;;8.71;100.00;101021.09;5007819;28;20705;-74
2022/11/03 10:19:49;;;;;;;8.23;4.13;;;;;;;8.76;100.00;101021.91;5019159;28;20221;-75
2022/11/03 10:22:15;;;;;;;4.47;3.20;;;;;;;8.87;100.00;101006.19;5023076;28;20278;-73
2022/11/03 10:24:42;;;;;;;8.10;3.37;;;;;;;8.93;100.00;101006.09;5023071;28;20684;-75
2022/11/03 10:27:21;;;;;;;4.73;2.70;;;;;;;9.01;100.00;100990.41;5013456;28;20459;-78
2022/11/03 10:30:04;;;;;;;3.10;2.37;;;;;;;9.12;100.00;100998.91;5009253;28;20207;-73
2022/11/03 10:32:33;;;;;;;4.37;2.50;;;;;;;9.19;100.00;100987.50;5005459;28;20203;-77
2022/11/03 10:34:59;;;;;;;5.43;2.50;;;;;;;9.29;100.00;100985.66;5015314;28;20211;-77
2022/11/03 10:37:27;;;;;;;3.93;2.43;;;;;;;9.35;100.00;100988.16;5029722;28;20226;-75
2022/11/03 10:39:55;;;;;;;5.10;2.50;;;;;;;9.45;100.00;100984.53;5023476;28;20228;-72
2022/11/03 10:42:24;;;;;;;9.23;4.47;;;;;;;9.55;100.00;100981.75;5005773;28;20207;-71
2022/11/03 10:44:53;;;;;;;5.63;2.77;;;;;;;9.55;100.00;100977.44;5028721;28;20212;-71
2022/11/03 10:47:24;;;;;;;3.20;2.17;;;;;;;9.66;100.00;100975.50;5023260;28;20231;-71
2022/11/03 10:49:53;;;;;;;4.83;2.53;;;;;;;9.69;100.00;100973.72;5022130;28;20607;-73
2022/11/03 10:52:22;;;;;;;4.10;2.63;;;;;;;9.75;100.00;100974.50;5027469;28;20232;-71
2022/11/03 10:54:50;;;;;;;4.73;2.40;;;;;;;9.79;100.00;100957.91;5026131;28;20257;-73
2022/11/03 10:57:17;;;;;;;5.50;2.00;;;;;;;9.83;100.00;100950.91;5032632;28;20220;-75
2022/11/03 10:59:48;;;;;;;5.43;2.67;;;;;;;9.89;100.00;100950.81;5035249;28;20207;-73
2022/11/03 11:02:18;;;;;;;5.97;2.70;;;;;;;9.99;100.00;100946.28;5037996;28;20464;-73
2022/11/03 11:04:46;;;;;;;3.83;2.17;;;;;;;10.00;100.00;100941.03;5033320;28;20216;-73
2022/11/03 11:07:19;;;;;;;4.67;2.73;;;;;;;10.11;100.00;100932.16;5034235;28;20220;-72
2022/11/03 11:09:46;;;;;;;3.83;2.40;;;;;;;10.12;100.00;100931.28;5033061;28;20212;-74
2022/11/03 11:12:17;;;;;;;6.73;4.00;;;;;;;10.20;100.00;100922.44;5027287;28;20255;-73
2022/11/03 11:14:54;;;;;;;5.00;2.87;;;;;;;10.33;100.00;100922.22;5029611;28;20231;-74
2022/11/03 11:17:42;;;;;;;5.67;2.87;;;;;;;10.41;100.00;100917.69;5024817;28;20291;-75
2022/11/03 11:20:29;;;;;;;6.80;2.33;;;;;;;10.44;100.00;100919.41;5028795;28;20197;-74
2022/11/03 11:22:55;;;;;;;6.40;2.53;;;;;;;10.48;100.00;100908.84;5025878;28;20194;-75
2022/11/03 11:25:57;;;;;;;4.50;2.13;;;;;;;10.55;100.00;100899.16;4997340;28;20225;-74
2022/11/03 11:28:23;;;;;;;4.37;1.80;;;;;;;10.60;100.00;100890.34;5030171;28;20215;-72
2022/11/03 11:31:00;;;;;;;3.70;2.33;;;;;;;10.73;100.00;100893.56;5025979;28;21092;-73
2022/11/03 11:33:30;;;;;;;4.10;1.80;;;;;;;10.79;100.00;100888.19;5026315;28;20223;-74
2022/11/03 11:36:22;;;;;;;5.27;2.57;;;;;;;10.83;100.00;100880.28;5030653;28;20215;-74
2022/11/03 11:38:56;;;;;;;2.63;1.80;;;;;;;10.95;100.00;100870.41;5017219;28;20778;-75
2022/11/03 11:41:56;;;;;;;4.50;2.17;;;;;;;11.07;100.00;100874.50;5017835;28;20213;-74
2022/11/03 11:45:02;;;;;;;5.37;2.10;;;;;;;11.10;100.00;100869.22;5029183;28;20203;-75
2022/11/03 11:47:40;;;;;;;3.20;2.33;;;;;;;11.16;100.00;100850.78;5016240;28;20230;-73
2022/11/03 11:50:26;;;;;;;4.90;1.97;;;;;;;11.27;100.00;100849.66;5020262;28;20207;-75
2022/11/03 11:53:11;;;;;;;3.23;2.00;;;;;;;11.34;100.00;100838.16;5018153;28;20250;-75
2022/11/03 11:55:51;;;;;;;4.70;2.10;;;;;;;11.43;100.00;100840.53;5000479;28;20235;-73
2022/11/03 11:58:23;;;;;;;3.43;2.33;;;;;;;11.47;100.00;100826.50;4997476;28;20212;-73
2022/11/03 12:01:00;;;;;;;3.47;2.10;;;;;;;11.52;100.00;100829.84;5034778;28;20204;-76
2022/11/03 12:03:32;;;;;;;4.93;1.87;;;;;;;11.61;100.00;100820.91;5030944;28;20779;-73
2022/11/03 12:05:58;;;;;;;2.53;1.50;;;;;;;11.65;100.00;100816.47;5031397;28;20245;-73
2022/11/03 12:08:28;;;;;;;6.87;1.80;;;;;;;11.67;100.00;100809.44;5018320;28;20684;-72
2022/11/03 12:10:56;;;;;;;4.00;1.50;;;;;;;11.70;100.00;100811.97;5023723;28;20218;-73
2022/11/03 12:13:48;;;;;;;2.80;1.70;;;;;;;11.73;100.00;100806.63;5016332;28;20206;-73
2022/11/03 12:16:28;;;;;;;2.23;1.60;;;;;;;11.77;100.00;100797.84;5023673;28;20224;-74
2022/11/03 12:18:56;;;;;;;2.33;1.50;;;;;;;11.77;100.00;100794.34;5022122;28;20228;-73
2022/11/03 12:21:45;;;;;;;3.73;1.67;;;;;;;11.73;100.00;100788.34;5027529;28;20271;-75
2022/11/03 12:24:26;;;;;;;2.03;1.40;;;;;;;11.77;100.00;100796.97;5021786;28;20217;-73
2022/11/03 12:26:52;;;;;;;5.87;1.70;;;;;;;11.79;100.00;100792.56;5030660;28;20232;-75
2022/11/03 12:29:18;;;;;;;1.50;1.20;;;;;;;11.81;100.00;100789.00;5016511;28;20199;-74
2022/11/03 12:31:46;;;;;;;4.23;1.30;;;;;;;11.91;100.00;100781.81;5004571;28;20440;-75
2022/11/03 12:34:15;;;;;;;2.70;1.50;;;;;;;12.01;100.00;100774.53;5011345;28;20204;-75
2022/11/03 12:36:41;;;;;;;2.37;1.13;;;;;;;12.16;100.00;100773.25;5013268;28;20213;-73
2022/11/03 12:39:08;;;;;;;2.90;1.27;;;;;;;12.21;100.00;100764.34;5010146;28;20651;-75
2022/11/03 12:41:34;;;;;;;1.77;1.23;;;;;;;12.31;100.00;100770.13;5009196;28;20188;-73
2022/11/03 12:44:02;;;;;;;2.33;1.20;;;;;;;12.35;100.00;100773.50;5008229;28;20225;-73
2022/11/03 12:46:28;;;;;;;4.23;1.47;;;;;;;12.46;100.00;100761.81;5015925;28;20228;-74
2022/11/03 12:48:55;;;;;;;3.67;1.40;;;;;;;12.51;100.00;100759.06;5027992;28;20200;-73
2022/11/03 12:51:24;;;;;;;1.70;1.27;;;;;;;12.54;100.00;100761.59;5018182;28;20439;-75
2022/11/03 12:53:50;;;;;;;2.60;1.10;;;;;;;12.60;100.00;100763.13;5026897;28;20204;-74
2022/11/03 12:56:18;;;;;;;1.73;1.07;;;;;;;12.61;100.00;100751.75;5018972;28;20235;-73
2022/11/03 12:58:44;;;;;;;4.33;1.20;;;;;;;12.60;100.00;100764.00;5026099;28;20211;-74
2022/11/03 13:01:11;;;;;;;4.50;1.20;;;;;;;12.58;100.00;100751.88;5022056;28;20452;-75
2022/11/03 13:03:39;;;;;;;2.50;1.10;;;;;;;12.54;100.00;100739.78;5026803;28;20204;-74
2022/11/03 13:06:08;;;;;;;2.27;1.17;;;;;;;12.51;100.00;100732.91;5018612;28;20228;-74
2022/11/03 13:08:36;;;;;;;2.83;1.43;;;;;;;12.50;100.00;100736.41;4999686;28;20206;-74
2022/11/03 13:11:03;;;;;;;2.60;1.40;;;;;;;12.41;100.00;100732.34;5016345;28;20245;-74
2022/11/03 13:13:30;;;;;;;3.93;1.27;;;;;;;12.39;100.00;100726.31;4994062;28;20200;-75
2022/11/03 13:15:56;;;;;;;2.63;1.10;;;;;;;12.38;100.00;100724.59;5013380;28;20236;-75
2022/11/03 13:18:24;;;;;;;3.47;1.20;;;;;;;12.39;100.00;100726.31;5022032;28;20209;-75
2022/11/03 13:20:50;;;;;;;2.13;1.20;;;;;;;12.41;100.00;100721.03;5008827;28;20733;-75
2022/11/03 13:23:16;;;;;;;2.33;1.30;;;;;;;12.38;100.00;100713.28;5014282;28;20197;-74
2022/11/03 13:25:46;;;;;;;1.70;1.00;;;;;;;12.40;100.00;100707.13;5006970;28;20225;-74
2022/11/03 13:28:12;;;;;;;1.20;1.00;;;;;;;12.39;100.00;100699.31;5023386;28;20204;-74
2022/11/03 13:30:39;;;;;;;2.90;1.40;;;;;;;12.36;100.00;100694.19;5019947;28;20202;-73
2022/11/03 13:33:05;;;;;;;4.93;1.17;;;;;;;12.29;100.00;100681.31;5010817;28;20204;-73
2022/11/03 13:35:31;;;;;;;2.47;1.23;;;;;;;12.21;100.00;100677.25;5008254;28;20201;-74
2022/11/03 13:37:58;;;;;;;1.70;1.20;;;;;;;12.14;100.00;100673.97;5007834;28;20259;-72
2022/11/03 13:40:24;;;;;;;2.13;1.13;;;;;;;12.10;100.00;100678.44;4991778;28;20211;-75
2022/11/03 13:42:52;;;;;;;2.20;1.10;;;;;;;12.04;100.00;100669.91;4986305;28;20276;-75
2022/11/03 13:45:18;;;;;;;2.33;0.90;;;;;;;11.98;100.00;100670.09;4995801;28;20640;-74
2022/11/03 13:47:45;;;;;;;1.60;0.90;;;;;;;11.95;100.00;100668.44;5006697;28;20205;-73
2022/11/03 13:50:18;;;;;;;1.97;1.23;;;;;;;11.87;100.00;100660.81;5005925;28;20286;-74
2022/11/03 13:52:45;;;;;;;3.33;1.27;;;;;;;11.82;100.00;100657.50;5007276;28;20613;-74
2022/11/03 13:55:12;;;;;;;1.73;1.10;;;;;;;11.78;100.00;100655.88;5009090;28;20561;-75
2022/11/03 13:57:38;;;;;;;5.03;1.10;;;;;;;11.71;100.00;100642.16;5008224;28;20221;-74
2022/11/03 14:00:07;;;;;;;3.17;1.20;;;;;;;11.75;100.00;100641.16;4999198;28;20203;-72
2022/11/03 14:02:40;;;;;;;1.13;0.97;;;;;;;11.72;100.00;100624.72;4996882;28;20267;-72
2022/11/03 14:05:08;;;;;;;4.87;1.30;;;;;;;11.73;100.00;100611.63;5003758;28;20217;-72
2022/11/03 14:07:34;;;;;;;2.03;1.20;;;;;;;11.72;100.00;100602.06;5001332;28;20629;-74
2022/11/03 14:10:01;;;;;;;2.77;1.20;;;;;;;11.69;100.00;100604.75;5009433;28;20224;-74
2022/11/03 14:12:34;;;;;;;3.93;1.47;;;;;;;11.72;100.00;100603.84;5004520;28;20215;-74
2022/11/03 14:15:02;;;;;;;1.30;1.10;;;;;;;11.70;100.00;100587.34;5007625;28;20189;-74
2022/11/03 14:17:30;;;;;;;1.77;1.20;;;;;;;11.65;100.00;100597.09;5007816;28;20231;-74
2022/11/03 14:19:57;;;;;;;2.40;1.30;;;;;;;11.65;100.00;100594.47;5011679;28;20284;-75
2022/11/03 14:22:24;;;;;;;4.83;1.30;;;;;;;11.58;100.00;100588.59;5009026;28;20215;-75
2022/11/03 14:24:52;;;;;;;1.60;1.07;;;;;;;11.53;100.00;100580.03;5017764;28;20774;-75
2022/11/03 14:27:19;;;;;;;1.90;1.50;;;;;;;11.50;100.00;100578.38;5009768;28;20223;-75
2022/11/03 14:29:48;;;;;;;1.63;1.10;;;;;;;11.48;100.00;100571.50;5022418;28;20282;-75
2022/11/03 14:32:15;;;;;;;2.50;1.17;;;;;;;11.44;100.00;100572.50;5020835;28;20842;-73
2022/11/03 14:34:43;;;;;;;2.83;1.20;;;;;;;11.37;100.00;100558.75;5016463;28;20204;-75
2022/11/03 14:37:10;;;;;;;2.87;1.30;;;;;;;11.35;100.00;100555.34;5023432;28;20494;-75
2022/11/03 14:39:38;;;;;;;3.17;1.60;;;;;;;11.29;100.00;100543.34;5010123;28;20224;-74
2022/11/03 14:42:05;;;;;;;1.37;1.27;;;;;;;11.23;100.00;100529.63;5010887;28;20207;-74
2022/11/03 14:44:32;;;;;;;2.63;1.27;;;;;;;11.21;100.00;100524.44;5026953;28;20199;-75
2022/11/03 14:47:00;;;;;;;1.87;1.43;;;;;;;11.12;100.00;100529.94;5019794;28;20318;-74
2022/11/03 14:49:26;;;;;;;4.33;1.70;;;;;;;11.03;100.00;100525.88;5016063;28;20755;-73
2022/11/03 14:51:55;;;;;;;1.80;1.30;;;;;;;10.95;100.00;100520.00;5028517;28;20202;-75
2022/11/03 14:54:23;;;;;;;2.03;1.37;;;;;;;10.89;100.00;100522.81;5021016;28;20234;-73
2022/11/03 14:56:49;;;;;;;1.90;1.17;;;;;;;10.82;100.00;100527.34;5021512;23;20232;-76
2022/11/03 14:59:15;;;;;;;2.50;1.30;;;;;;;10.77;100.00;100518.78;5028214;28;20213;-77
2022/11/03 15:01:42;;;;;;;2.83;1.57;;;;;;;10.78;100.00;100516.13;5031509;28;20206;-77
2022/11/03 15:04:08;;;;;;;2.17;1.40;;;;;;;10.74;100.00;100519.72;5021177;28;20971;-77
2022/11/03 15:06:34;;;;;;;2.17;1.60;;;;;;;10.73;100.00;100514.53;5030017;28;20226;-77
2022/11/03 15:09:03;;;;;;;1.93;1.27;;;;;;;10.68;100.00;100514.69;5030285;28;20222;-77
2022/11/03 15:11:30;;;;;;;2.10;1.30;;;;;;;10.65;100.00;100504.34;5048834;22;20211;-72
2022/11/03 15:13:56;;;;;;;3.43;1.33;;;;;;;10.58;100.00;100505.41;5059530;28;20205;-72
2022/11/03 15:16:23;;;;;;;3.53;1.40;;;;;;;10.49;100.00;100503.91;5057881;28;20200;-71
2022/11/03 15:18:50;;;;;;;3.03;1.30;;;;;;;10.42;100.00;100503.22;5035480;28;20233;-71
2022/11/03 15:21:17;;;;;;;2.17;1.50;;;;;;;10.42;100.00;100498.00;5052836;28;20201;-71
2022/11/03 15:23:44;;;;;;;3.70;1.73;;;;;;;10.38;100.00;100487.72;5038600;28;20207;-72
2022/11/03 15:26:12;;;;;;;2.17;1.40;;;;;;;10.29;100.00;100491.41;5039384;28;20414;-71
2022/11/03 15:28:38;;;;;;;2.70;1.50;;;;;;;10.16;100.00;100483.03;5040131;28;20244;-71
2022/11/03 15:31:05;;;;;;;2.60;1.40;;;;;;;10.09;100.00;100478.91;5036113;28;20206;-71
2022/11/03 15:33:31;;;;;;;4.03;1.80;;;;;;;10.02;100.00;100474.75;5035498;28;20627;-71
2022/11/03 15:35:58;;;;;;;8.90;2.67;;;;;;;9.97;100.00;100477.50;5034318;28;20205;-71
2022/11/03 15:38:24;;;;;;;4.27;2.30;;;;;;;9.87;100.00;100473.41;5042671;28;20465;-72
2022/11/03 15:40:50;;;;;;;6.40;2.03;;;;;;;9.77;100.00;100469.31;5034012;28;20671;-72
2022/11/03 15:43:18;;;;;;;2.77;1.97;;;;;;;9.76;100.00;100455.47;5029210;28;20230;-71
2022/11/03 15:45:44;;;;;;;2.70;1.67;;;;;;;9.69;100.00;100468.66;5039599;28;20219;-72
2022/11/03 15:48:11;;;;;;;5.30;2.20;;;;;;;9.60;100.00;100456.72;5038208;28;20192;-72
2022/11/03 15:50:37;;;;;;;4.67;2.10;;;;;;;9.52;100.00;100446.50;5023519;28;20579;-72
2022/11/03 15:53:04;;;;;;;2.53;1.80;;;;;;;9.46;100.00;100444.91;5043000;28;20224;-72
2022/11/03 15:55:31;;;;;;;3.13;1.67;;;;;;;9.48;100.00;100426.66;5039514;28;20532;-72
2022/11/03 15:57:58;;;;;;;2.70;1.60;;;;;;;9.48;100.00;100417.09;5043396;28;20575;-71
2022/11/03 16:00:25;;;;;;;3.20;1.80;;;;;;;9.42;100.00;100411.19;5019140;28;20246;-71
2022/11/03 16:02:52;;;;;;;2.40;2.00;;;;;;;9.34;100.00;100407.91;5040161;28;20587;-71
2022/11/03 16:05:18;;;;;;;2.97;1.70;;;;;;;9.34;100.00;100403.59;5038158;28;20239;-72
2022/11/03 16:07:44;;;;;;;2.63;1.50;;;;;;;9.32;100.00;100412.28;5042223;28;20222;-72
2022/11/03 16:10:11;;;;;;;3.70;2.00;;;;;;;9.22;100.00;100402.13;5040508;28;20659;-74
2022/11/03 16:12:37;;;;;;;3.37;2.20;;;;;;;9.10;100.00;100399.81;5038433;28;20227;-73
2022/11/03 16:15:04;;;;;;;4.13;2.10;;;;;;;9.06;100.00;100393.81;5041072;28;20253;-74
2022/11/03 16:17:32;;;;;;;3.60;2.10;;;;;;;9.02;100.00;100387.00;5033876;28;20531;-74
2022/11/03 16:19:58;;;;;;;2.73;1.90;;;;;;;8.94;100.00;100385.47;5033885;28;20200;-73
2022/11/03 16:22:25;;;;;;;2.80;2.23;;;;;;;8.88;100.00;100371.72;5033968;28;20219;-74
2022/11/03 16:24:51;;;;;;;4.23;2.70;;;;;;;8.85;100.00;100363.97;5036039;28;20199;-74
2022/11/03 16:27:17;;;;;;;5.37;2.60;;;;;;;8.80;100.00;100357.19;5035247;28;20226;-73
2022/11/03 16:29:44;;;;;;;4.60;2.33;;;;;;;8.76;100.00;100359.00;5036311;28;20229;-74